N9290N KMIA-
Flight info
| Callsign | N9290N |
|---|---|
| Flight time | N/A |
| Altitude | VFR/005 |
| Route | |
| Aircraft | PA28/L-DOV/C |
Departure
| Time | 2026-05-05 02:31 |
|---|---|
| Airport | Miami International Airport (KMIA) |
Arrival
| Time | N/A |
|---|---|
| Airport | - |
| Time | Latitude | Longitude | Altitude | Speed | Heading |
|---|---|---|---|---|---|
| 2026-05-05 02:26 | 25.80436 | -80.29250 | 8 ft | 13 kts | 259° |
| 2026-05-05 02:27 | 25.80430 | -80.29362 | 8 ft | 15 kts | 261° |
| 2026-05-05 02:27 | 25.80428 | -80.29491 | 8 ft | 17 kts | 264° |
| 2026-05-05 02:27 | 25.80423 | -80.29622 | 8 ft | 17 kts | 269° |
| 2026-05-05 02:27 | 25.80419 | -80.29755 | 8 ft | 17 kts | 269° |
| 2026-05-05 02:28 | 25.80410 | -80.29887 | 8 ft | 16 kts | 269° |
| 2026-05-05 02:28 | 25.80406 | -80.30018 | 8 ft | 15 kts | 254° |
| 2026-05-05 02:28 | 25.80330 | -80.30061 | 8 ft | 12 kts | 180° |
| 2026-05-05 02:28 | 25.80253 | -80.30057 | 8 ft | 10 kts | 174° |
| 2026-05-05 02:29 | 25.80189 | -80.30053 | 8 ft | 8 kts | 177° |
| 2026-05-05 02:29 | 25.80180 | -80.30053 | 8 ft | 0 kts | 179° |
| 2026-05-05 02:29 | 25.80172 | -80.30052 | 8 ft | 4 kts | 177° |
| 2026-05-05 02:30 | 25.80098 | -80.30021 | 8 ft | 21 kts | 125° |
| 2026-05-05 02:30 | 25.80086 | -80.29758 | 8 ft | 54 kts | 86° |
| 2026-05-05 02:30 | 25.80080 | -80.29235 | 101 ft | 74 kts | 91° |
| 2026-05-05 02:30 | 25.80063 | -80.28638 | 239 ft | 80 kts | 91° |
| 2026-05-05 02:31 | 25.80102 | -80.28005 | 350 ft | 86 kts | 83° |
| 2026-05-05 02:31 | 25.80118 | -80.27340 | 509 ft | 87 kts | 89° |
| 2026-05-05 02:31 | 25.80088 | -80.26687 | 687 ft | 84 kts | 96° |
| 2026-05-05 02:31 | 25.80065 | -80.25955 | 680 ft | 96 kts | 86° |
| 2026-05-05 02:32 | 25.80114 | -80.25211 | 619 ft | 95 kts | 84° |
| 2026-05-05 02:32 | 25.80228 | -80.24478 | 513 ft | 90 kts | 84° |
| 2026-05-05 02:32 | 25.80280 | -80.23717 | 475 ft | 103 kts | 88° |
| 2026-05-05 02:32 | 25.80243 | -80.22875 | 441 ft | 110 kts | 95° |
| 2026-05-05 02:33 | 25.80213 | -80.22437 | 503 ft | 106 kts | 97° |
| 2026-05-05 02:33 | 25.80145 | -80.21631 | 589 ft | 103 kts | 94° |
| 2026-05-05 02:33 | 25.80158 | -80.20820 | 639 ft | 103 kts | 82° |
| 2026-05-05 02:33 | 25.80249 | -80.20027 | 672 ft | 101 kts | 86° |
| 2026-05-05 02:34 | 25.80380 | -80.19247 | 552 ft | 110 kts | 88° |
| 2026-05-05 02:34 | 25.80380 | -80.18388 | 429 ft | 115 kts | 88° |
| 2026-05-05 02:34 | 25.80371 | -80.17500 | 365 ft | 110 kts | 88° |
| 2026-05-05 02:34 | 25.80369 | -80.16713 | 516 ft | 95 kts | 86° |
| 2026-05-05 02:35 | 25.80403 | -80.15945 | 407 ft | 108 kts | 86° |
| 2026-05-05 02:35 | 25.80430 | -80.15127 | 420 ft | 104 kts | 85° |
| 2026-05-05 02:35 | 25.80464 | -80.14324 | 428 ft | 102 kts | 83° |
| 2026-05-05 02:35 | 25.80551 | -80.13573 | 502 ft | 95 kts | 71° |
| 2026-05-05 02:36 | 25.80750 | -80.12864 | 464 ft | 102 kts | 73° |
| 2026-05-05 02:36 | 25.81093 | -80.12164 | 452 ft | 102 kts | 34° |
| 2026-05-05 02:36 | 25.81812 | -80.12000 | 397 ft | 109 kts | 9° |
| 2026-05-05 02:36 | 25.82558 | -80.11911 | 392 ft | 108 kts | 10° |
| 2026-05-05 02:37 | 25.83305 | -80.11844 | 389 ft | 107 kts | 5° |
| 2026-05-05 02:37 | 25.84069 | -80.11821 | 353 ft | 108 kts | 7° |
| 2026-05-05 02:37 | 25.84808 | -80.11744 | 365 ft | 106 kts | 6° |
| 2026-05-05 02:37 | 25.85537 | -80.11726 | 471 ft | 95 kts | 3° |
| 2026-05-05 02:38 | 25.86226 | -80.11746 | 471 ft | 100 kts | 2° |
| 2026-05-05 02:38 | 25.86922 | -80.11775 | 485 ft | 102 kts | 1° |
| 2026-05-05 02:38 | 25.87631 | -80.11855 | 532 ft | 100 kts | 357° |
| 2026-05-05 02:38 | 25.88261 | -80.12040 | 807 ft | 82 kts | 327° |
| 2026-05-05 02:39 | 25.88436 | -80.12637 | 955 ft | 94 kts | 273° |
| 2026-05-05 02:39 | 25.88445 | -80.13433 | 1019 ft | 107 kts | 272° |
| 2026-05-05 02:39 | 25.88444 | -80.14272 | 1147 ft | 109 kts | 269° |
| 2026-05-05 02:39 | 25.88336 | -80.15101 | 1292 ft | 110 kts | 262° |
| 2026-05-05 02:40 | 25.88230 | -80.15867 | 1273 ft | 126 kts | 263° |